Lake Sawyer, Washington
Current Conditions -  °F | °C
As of 4:53 AM on Friday 24 Oct 2014 (Local Time) from KSEA Reporting Station
Overcast Overcast  
Wind Chill: 50°   Ceiling: 4700
Heat Index: 50°   Visibility: 10mi
Dew Point: 46°   Wind: 6mph
Humidity: 86%   Direction: 90°E
Pressure: 30.04"   Gusts: NA
Location:  47.3596°N, 122.107°W
Report Text: KSEA 241153Z 09005KT 10SM FEW035 OVC047 10/08 A3004 RMK AO2 SLP179 60002 70037 T01000078 10100 20094 50002
Loading
Personal Weather Stations






























Interactive Weather Map
Tropical Storm Tracking
New forecast layout! Learn more

10-Day Weather Forecast

Advertisements
Track Severe Weather on mobile